createdAt,value
2023-02-21T00:00:11.401Z,18.50
2023-02-21T00:03:26.718Z,11.60
2023-02-21T00:06:13.554Z,14.40
2023-02-21T00:09:00.474Z,8.30
2023-02-21T00:11:51.780Z,9.80
2023-02-21T00:14:39.092Z,12.50
2023-02-21T00:17:25.842Z,9.90
2023-02-21T00:20:12.855Z,8.90
2023-02-21T00:22:59.611Z,16.50
2023-02-21T00:25:46.261Z,16.80
2023-02-21T00:28:32.851Z,13.40
2023-02-21T00:31:19.476Z,20.70
2023-02-21T00:34:06.424Z,7.50
2023-02-21T00:36:53.601Z,17.20
2023-02-21T00:39:40.264Z,7.40
2023-02-21T00:42:26.841Z,18.80
2023-02-21T00:45:13.689Z,10.10
2023-02-21T00:48:00.416Z,7.30
2023-02-21T00:50:47.200Z,14.60
2023-02-21T00:53:34.430Z,8.20
2023-02-21T00:56:21.249Z,9.20
2023-02-21T00:59:08.072Z,17.70
2023-02-21T01:01:54.623Z,15.90
2023-02-21T01:04:48.042Z,15.80
2023-02-21T01:07:34.524Z,7.70
2023-02-21T01:10:20.996Z,14.20
2023-02-21T01:13:07.653Z,10.20
2023-02-21T01:15:53.945Z,31.40
2023-02-21T01:18:44.598Z,12.60
2023-02-21T01:21:32.657Z,12.40
2023-02-21T01:24:19.762Z,16.40
2023-02-21T01:27:06.498Z,16.90
2023-02-21T01:29:53.029Z,16.90
2023-02-21T01:32:39.671Z,16.70
2023-02-21T01:35:26.491Z,21.70
2023-02-21T01:38:13.007Z,12.20
2023-02-21T01:40:59.745Z,18.90
2023-02-21T01:43:46.926Z,22.50
2023-02-21T01:46:35.660Z,18.60
2023-02-21T01:49:28.328Z,15.30
2023-02-21T01:52:16.423Z,19.60
2023-02-21T01:55:11.446Z,18.90
2023-02-21T01:57:57.947Z,23.70
2023-02-21T02:00:45.373Z,30.40
2023-02-21T02:03:39.409Z,14.00
2023-02-21T02:06:30.972Z,21.30
2023-02-21T02:09:17.734Z,14.90
2023-02-21T02:12:04.242Z,19.10
2023-02-21T02:14:41.877Z,21.60
2023-02-21T02:17:18.118Z,17.70
2023-02-21T02:20:04.878Z,16.90
2023-02-21T02:22:57.626Z,24.00
2023-02-21T02:25:29.176Z,15.60
2023-02-21T02:27:56.948Z,24.40
2023-02-21T02:30:31.511Z,18.50
2023-02-21T02:33:09.410Z,11.70
2023-02-21T02:35:40.194Z,17.10
2023-02-21T02:38:17.674Z,13.20
2023-02-21T02:40:50.670Z,17.90
2023-02-21T02:43:25.648Z,13.90
2023-02-21T02:46:06.993Z,18.20
2023-02-21T02:48:37.133Z,19.60
2023-02-21T02:51:09.788Z,19.00
2023-02-21T02:53:38.632Z,15.70
2023-02-21T02:56:09.792Z,20.30
2023-02-21T02:58:43.661Z,19.60
2023-02-21T03:01:31.750Z,12.20
2023-02-21T03:04:18.279Z,17.20
2023-02-21T03:06:51.091Z,21.80
2023-02-21T03:09:37.913Z,22.90
2023-02-21T03:12:08.877Z,14.70
2023-02-21T03:14:38.845Z,22.50
2023-02-21T03:17:09.557Z,19.80
2023-02-21T03:19:41.189Z,19.00
2023-02-21T03:22:11.702Z,25.40
2023-02-21T03:24:40.971Z,23.00
2023-02-21T03:27:09.314Z,18.80
2023-02-21T03:29:58.384Z,17.80
2023-02-21T03:32:38.877Z,23.30
2023-02-21T03:35:07.644Z,21.00
2023-02-21T03:37:43.161Z,16.90
2023-02-21T03:40:16.061Z,15.20
2023-02-21T03:42:54.628Z,19.40
2023-02-21T03:45:23.080Z,19.20
2023-02-21T03:48:02.941Z,15.70
2023-02-21T03:50:31.341Z,19.00
2023-02-21T03:52:59.820Z,19.50
2023-02-21T03:55:27.712Z,17.60
2023-02-21T03:57:55.910Z,19.20
2023-02-21T04:00:24.208Z,18.00
2023-02-21T04:02:54.018Z,17.30
2023-02-21T04:08:05.803Z,21.80
2023-02-21T04:10:51.537Z,15.90
2023-02-21T04:13:23.742Z,18.80
2023-02-21T04:15:52.045Z,22.80
2023-02-21T04:18:26.725Z,22.70
2023-02-21T04:21:03.856Z,18.00
2023-02-21T04:23:38.648Z,20.40
2023-02-21T04:26:11.172Z,25.60
2023-02-21T04:28:44.142Z,19.30
2023-02-21T04:31:14.502Z,16.20
2023-02-21T04:33:42.490Z,23.70
2023-02-21T04:36:12.841Z,12.10
2023-02-21T04:38:43.328Z,14.70
2023-02-21T04:41:11.103Z,19.90
2023-02-21T04:43:42.114Z,23.30
2023-02-21T04:46:10.425Z,27.90
2023-02-21T04:48:38.089Z,12.10
2023-02-21T04:51:14.983Z,15.40
2023-02-21T04:53:43.685Z,19.80
2023-02-21T04:56:12.995Z,22.20
2023-02-21T04:58:46.133Z,24.30
2023-02-21T05:01:15.386Z,15.30
2023-02-21T05:03:43.309Z,28.40
2023-02-21T05:06:11.058Z,21.80
2023-02-21T05:08:38.826Z,16.90
2023-02-21T05:13:42.100Z,21.00
2023-02-21T05:16:10.302Z,19.50
2023-02-21T05:18:41.128Z,33.10
2023-02-21T05:21:09.152Z,21.40
2023-02-21T05:23:40.243Z,19.20
2023-02-21T05:26:11.361Z,25.00
2023-02-21T05:28:40.278Z,28.70
2023-02-21T05:31:08.878Z,21.40
2023-02-21T05:33:36.816Z,34.80
2023-02-21T05:36:04.826Z,23.50
2023-02-21T05:38:32.593Z,20.20
2023-02-21T05:41:01.979Z,27.50
2023-02-21T05:43:33.712Z,37.10
2023-02-21T05:46:01.556Z,20.70
2023-02-21T05:48:29.289Z,31.50
2023-02-21T05:50:57.046Z,24.80
2023-02-21T05:53:24.790Z,31.00
2023-02-21T05:55:52.562Z,29.90
2023-02-21T05:58:20.333Z,28.40
2023-02-21T06:00:47.991Z,21.20
2023-02-21T06:03:15.763Z,19.00
2023-02-21T06:05:43.425Z,27.70
2023-02-21T06:08:13.683Z,26.00
2023-02-21T06:10:41.708Z,25.50
2023-02-21T06:13:09.516Z,32.90
2023-02-21T06:15:37.226Z,42.10
2023-02-21T06:18:06.229Z,30.80
2023-02-21T06:20:34.000Z,24.80
2023-02-21T06:23:01.746Z,23.10
2023-02-21T06:25:29.633Z,32.10
2023-02-21T06:27:57.456Z,30.10
2023-02-21T06:30:25.580Z,30.50
2023-02-21T06:33:00.008Z,27.10
2023-02-21T06:35:28.835Z,27.60
2023-02-21T06:37:56.577Z,22.80
2023-02-21T06:40:24.513Z,18.50
2023-02-21T06:42:52.524Z,22.20
2023-02-21T06:45:20.151Z,34.60
2023-02-21T06:47:47.917Z,35.80
2023-02-21T06:50:15.683Z,18.00
2023-02-21T06:52:43.470Z,31.70
2023-02-21T06:55:11.176Z,24.70
2023-02-21T06:57:39.065Z,30.50
2023-02-21T07:00:07.476Z,34.30
2023-02-21T07:02:35.435Z,46.50
2023-02-21T07:05:03.156Z,29.50
2023-02-21T07:07:30.882Z,32.80
2023-02-21T07:09:58.949Z,38.90
2023-02-21T07:12:27.930Z,27.20
2023-02-21T07:14:55.643Z,30.10
2023-02-21T07:17:23.461Z,25.80
2023-02-21T07:19:51.160Z,30.80
2023-02-21T07:22:19.953Z,32.70
2023-02-21T07:24:47.855Z,24.10
2023-02-21T07:27:15.584Z,31.30
2023-02-21T07:29:43.380Z,20.80
2023-02-21T07:32:11.117Z,43.90
2023-02-21T07:34:38.979Z,52.60
2023-02-21T07:37:06.833Z,35.60
2023-02-21T07:39:34.513Z,23.60
2023-02-21T07:42:02.279Z,48.40
2023-02-21T07:44:30.769Z,28.00
2023-02-21T07:46:58.520Z,35.50
2023-02-21T07:49:36.656Z,28.80
2023-02-21T07:52:04.508Z,26.50
2023-02-21T07:54:32.484Z,36.20
2023-02-21T07:57:00.649Z,31.20
2023-02-21T07:59:29.124Z,20.00
2023-02-21T08:01:56.915Z,22.60
2023-02-21T08:04:25.866Z,22.60
2023-02-21T08:06:58.871Z,31.20
2023-02-21T08:09:26.588Z,30.80
2023-02-21T08:11:54.356Z,30.60
2023-02-21T08:14:22.373Z,14.00
2023-02-21T08:16:50.152Z,19.60
2023-02-21T08:19:17.813Z,28.80
2023-02-21T08:21:46.982Z,15.10
2023-02-21T08:24:15.090Z,28.80
2023-02-21T08:26:45.475Z,20.20
2023-02-21T08:29:21.341Z,21.30
2023-02-21T08:31:53.007Z,33.90
2023-02-21T08:34:20.661Z,21.60
2023-02-21T08:36:48.347Z,19.20
2023-02-21T08:39:16.684Z,23.10
2023-02-21T08:41:46.813Z,23.90
2023-02-21T08:44:18.145Z,24.30
2023-02-21T08:46:47.726Z,34.20
2023-02-21T08:49:16.801Z,23.50
2023-02-21T08:51:44.380Z,20.70
2023-02-21T08:54:12.130Z,36.60
2023-02-21T08:56:40.319Z,21.80
2023-02-21T08:59:09.412Z,16.10
2023-02-21T09:01:37.199Z,27.10
2023-02-21T09:04:05.220Z,23.00
2023-02-21T09:06:33.000Z,33.40
2023-02-21T09:09:00.676Z,30.20
2023-02-21T09:11:32.249Z,29.60
2023-02-21T09:13:59.946Z,27.60
2023-02-21T09:16:27.754Z,26.80
2023-02-21T09:18:57.056Z,25.30
2023-02-21T09:21:25.104Z,19.80
2023-02-21T09:23:54.228Z,24.60
2023-02-21T09:26:24.464Z,20.00
2023-02-21T09:28:52.874Z,17.20
2023-02-21T09:31:20.785Z,25.10
2023-02-21T09:33:48.552Z,29.90
2023-02-21T09:38:52.326Z,32.10
2023-02-21T09:41:20.141Z,19.00
2023-02-21T09:43:50.943Z,20.20
2023-02-21T09:46:28.639Z,26.10
2023-02-21T09:48:57.062Z,15.70
2023-02-21T09:51:25.775Z,24.90
2023-02-21T09:53:55.964Z,33.80
2023-02-21T09:56:28.726Z,23.00
2023-02-21T09:58:59.098Z,15.10
2023-02-21T10:01:33.253Z,31.00
2023-02-21T10:04:01.501Z,27.40
2023-02-21T10:06:29.154Z,14.80
2023-02-21T10:09:08.698Z,18.40
2023-02-21T10:11:39.460Z,18.50
2023-02-21T10:14:19.273Z,22.50
2023-02-21T10:17:11.322Z,15.90
2023-02-21T10:19:42.015Z,23.20
2023-02-21T10:22:20.451Z,17.60
2023-02-21T10:24:49.468Z,24.50
2023-02-21T10:27:19.279Z,21.90
2023-02-21T10:30:00.041Z,21.80
2023-02-21T10:32:28.551Z,17.30
2023-02-21T10:34:58.833Z,22.00
2023-02-21T10:37:45.066Z,13.60
2023-02-21T10:40:28.995Z,23.30
2023-02-21T10:43:21.148Z,21.50
2023-02-21T10:45:56.145Z,19.60
2023-02-21T10:48:25.589Z,23.00
2023-02-21T10:51:05.253Z,20.50
2023-02-21T10:53:32.954Z,29.30
2023-02-21T10:56:13.305Z,19.10
2023-02-21T10:59:07.061Z,21.50
2023-02-21T11:01:45.716Z,20.50
2023-02-21T11:04:19.554Z,17.30
2023-02-21T11:06:49.013Z,17.00
2023-02-21T11:09:36.334Z,25.50
2023-02-21T11:12:10.092Z,26.50
2023-02-21T11:14:38.120Z,22.60
2023-02-21T11:17:06.473Z,23.90
2023-02-21T11:19:46.881Z,29.90
2023-02-21T11:22:15.886Z,22.30
2023-02-21T11:24:49.911Z,21.00
2023-02-21T11:27:17.953Z,20.20
2023-02-21T11:29:47.545Z,16.50
2023-02-21T11:32:24.742Z,22.80
2023-02-21T11:35:01.740Z,22.80
2023-02-21T11:37:29.548Z,18.70
2023-02-21T11:39:57.255Z,20.10
2023-02-21T11:42:32.238Z,19.70
2023-02-21T11:45:20.656Z,18.20
2023-02-21T11:47:56.091Z,16.60
2023-02-21T11:50:33.622Z,23.70
2023-02-21T11:53:07.973Z,17.00
2023-02-21T11:58:25.638Z,19.60
2023-02-21T12:01:19.784Z,26.10
2023-02-21T12:03:50.570Z,22.30
2023-02-21T12:06:29.181Z,20.90
2023-02-21T12:09:16.116Z,29.20
2023-02-21T12:11:49.158Z,23.80
2023-02-21T12:14:20.024Z,19.00
2023-02-21T12:16:59.750Z,16.90
2023-02-21T12:19:46.670Z,20.30
2023-02-21T12:22:17.830Z,23.80
2023-02-21T12:25:01.730Z,30.60
2023-02-21T12:27:48.326Z,35.40
2023-02-21T12:30:41.646Z,21.80
2023-02-21T12:33:17.281Z,20.40
2023-02-21T12:35:54.605Z,18.10
2023-02-21T12:38:31.541Z,31.50
2023-02-21T12:41:12.431Z,23.40
2023-02-21T12:43:59.078Z,31.50
2023-02-21T12:46:46.163Z,25.20
2023-02-21T12:49:29.862Z,25.00
2023-02-21T12:52:04.295Z,24.50
2023-02-21T12:54:35.163Z,32.40
2023-02-21T12:57:10.065Z,28.50
2023-02-21T12:59:53.374Z,36.40
2023-02-21T13:02:27.395Z,31.80
2023-02-21T13:07:25.684Z,32.20
2023-02-21T13:10:00.723Z,35.70
2023-02-21T13:12:38.966Z,29.10
2023-02-21T13:15:12.745Z,36.10
2023-02-21T13:17:41.511Z,28.80
2023-02-21T13:20:18.029Z,32.20
2023-02-21T13:22:48.177Z,40.40
2023-02-21T13:25:32.837Z,27.20
2023-02-21T13:28:12.017Z,25.70
2023-02-21T13:30:42.109Z,27.70
2023-02-21T13:33:23.120Z,27.90
2023-02-21T13:35:51.276Z,38.10
2023-02-21T13:38:19.830Z,36.10
2023-02-21T13:41:17.776Z,25.30
2023-02-21T13:43:53.344Z,22.60
2023-02-21T13:46:44.752Z,24.60
2023-02-21T13:49:31.445Z,46.20
2023-02-21T13:52:18.188Z,35.30
2023-02-21T13:55:04.993Z,35.20
2023-02-21T13:57:34.239Z,26.90
2023-02-21T14:00:21.242Z,29.50
2023-02-21T14:03:09.870Z,42.90
2023-02-21T14:05:44.984Z,30.40
2023-02-21T14:08:15.315Z,32.20
2023-02-21T14:10:47.996Z,26.90
2023-02-21T14:13:21.395Z,29.00
2023-02-21T14:15:50.877Z,39.70
2023-02-21T14:18:25.666Z,30.50
2023-02-21T14:20:55.325Z,32.70
2023-02-21T14:23:25.648Z,36.80
2023-02-21T14:25:57.853Z,35.20
2023-02-21T14:28:45.892Z,26.40
2023-02-21T14:31:13.871Z,30.00
2023-02-21T14:33:42.566Z,25.60
2023-02-21T14:36:15.038Z,31.40
2023-02-21T14:38:43.250Z,34.00
2023-02-21T14:41:30.128Z,35.10
2023-02-21T14:44:00.738Z,24.70
2023-02-21T14:46:41.908Z,34.20
2023-02-21T14:49:09.752Z,42.20
2023-02-21T14:51:56.983Z,36.60
2023-02-21T14:54:45.816Z,43.20
2023-02-21T14:57:24.119Z,30.80
2023-02-21T15:00:07.622Z,36.90
2023-02-21T15:02:55.796Z,31.70
2023-02-21T15:05:38.477Z,39.60
2023-02-21T15:08:22.806Z,30.30
2023-02-21T15:11:00.926Z,32.40
2023-02-21T15:13:36.610Z,33.70
2023-02-21T15:16:09.685Z,29.50
2023-02-21T15:19:00.090Z,35.40
2023-02-21T15:21:28.049Z,25.60
2023-02-21T15:24:13.900Z,31.60
2023-02-21T15:26:41.805Z,37.80
2023-02-21T15:29:14.010Z,29.40
2023-02-21T15:31:53.684Z,28.10
2023-02-21T15:34:35.055Z,35.70
2023-02-21T15:37:21.613Z,30.70
2023-02-21T15:39:57.083Z,27.10
2023-02-21T15:42:25.745Z,29.60
2023-02-21T15:45:05.679Z,20.80
2023-02-21T15:47:34.444Z,35.30
2023-02-21T15:50:05.351Z,24.20
2023-02-21T15:52:36.619Z,31.80
2023-02-21T15:55:20.003Z,30.10
2023-02-21T15:58:03.425Z,29.20
2023-02-21T16:00:33.024Z,25.90
2023-02-21T16:03:20.324Z,42.10
2023-02-21T16:05:50.906Z,45.30
2023-02-21T16:08:18.926Z,48.10
2023-02-21T16:10:47.679Z,36.30
2023-02-21T16:13:15.537Z,28.00
2023-02-21T16:15:43.533Z,27.60
2023-02-21T16:18:16.609Z,29.00
2023-02-21T16:20:45.193Z,32.20
2023-02-21T16:23:19.649Z,49.20
2023-02-21T16:25:57.945Z,42.30
2023-02-21T16:28:26.111Z,44.00
2023-02-21T16:30:55.762Z,25.50
2023-02-21T16:33:24.090Z,37.30
2023-02-21T16:35:52.380Z,36.70
2023-02-21T16:38:22.065Z,31.00
2023-02-21T16:40:50.297Z,29.70
2023-02-21T16:43:22.912Z,30.30
2023-02-21T16:45:52.303Z,28.90
2023-02-21T16:48:27.020Z,31.90
2023-02-21T16:50:55.163Z,31.30
2023-02-21T16:53:23.134Z,34.20
2023-02-21T16:55:51.532Z,26.60
2023-02-21T16:58:26.190Z,35.20
2023-02-21T17:00:59.160Z,30.40
2023-02-21T17:03:28.558Z,40.50
2023-02-21T17:06:16.275Z,28.70
2023-02-21T17:08:44.457Z,32.10
2023-02-21T17:11:12.320Z,30.20
2023-02-21T17:13:42.782Z,37.10
2023-02-21T17:16:12.193Z,26.20
2023-02-21T17:18:41.299Z,30.20
2023-02-21T17:21:09.826Z,37.50
2023-02-21T17:23:37.765Z,43.50
2023-02-21T17:26:05.638Z,39.70
2023-02-21T17:28:34.758Z,46.90
2023-02-21T17:31:04.431Z,26.20
2023-02-21T17:33:32.137Z,30.50
2023-02-21T17:35:59.889Z,35.50
2023-02-21T17:38:27.673Z,38.10
2023-02-21T17:40:55.790Z,30.10
2023-02-21T17:43:23.832Z,37.80
2023-02-21T17:45:55.376Z,29.20
2023-02-21T17:48:23.451Z,31.60
2023-02-21T17:50:51.226Z,34.50
2023-02-21T17:53:19.180Z,27.60
2023-02-21T17:55:46.796Z,28.70
2023-02-21T17:58:14.581Z,16.10
2023-02-21T18:00:49.438Z,27.80
2023-02-21T18:03:21.985Z,21.50
2023-02-21T18:05:50.033Z,25.10
2023-02-21T18:08:18.558Z,38.40
2023-02-21T18:10:46.395Z,21.00
2023-02-21T18:13:14.721Z,26.00
2023-02-21T18:15:42.474Z,18.60
2023-02-21T18:18:10.337Z,12.90
2023-02-21T18:20:39.546Z,33.10
2023-02-21T18:23:07.408Z,28.70
2023-02-21T18:25:35.921Z,25.10
2023-02-21T18:28:04.684Z,32.80
2023-02-21T18:30:32.686Z,37.60
2023-02-21T18:33:00.847Z,20.50
2023-02-21T18:35:28.793Z,31.40
2023-02-21T18:37:56.805Z,23.40
2023-02-21T18:40:34.332Z,36.40
2023-02-21T18:43:03.055Z,37.60
2023-02-21T18:45:32.986Z,33.20
2023-02-21T18:48:01.546Z,39.00
2023-02-21T18:50:29.375Z,33.30
2023-02-21T18:52:58.289Z,24.70
2023-02-21T18:55:26.274Z,24.70
2023-02-21T18:57:54.805Z,29.90
2023-02-21T19:00:23.201Z,35.80
2023-02-21T19:02:51.092Z,30.80
2023-02-21T19:05:20.225Z,28.40
2023-02-21T19:07:53.833Z,32.50
2023-02-21T19:10:22.716Z,36.90
2023-02-21T19:13:02.257Z,25.20
2023-02-21T19:15:40.290Z,35.50
2023-02-21T19:18:08.383Z,34.50
2023-02-21T19:20:37.196Z,29.80
2023-02-21T19:23:05.128Z,32.50
2023-02-21T19:25:33.252Z,32.20
2023-02-21T19:28:01.381Z,45.30
2023-02-21T19:30:30.197Z,33.90
2023-02-21T19:32:59.217Z,31.20
2023-02-21T19:35:28.427Z,28.10
2023-02-21T19:37:56.352Z,38.00
2023-02-21T19:40:24.600Z,36.10
2023-02-21T19:42:52.677Z,40.80
2023-02-21T19:45:21.108Z,37.60
2023-02-21T19:47:49.113Z,24.10
2023-02-21T19:50:16.921Z,25.50
2023-02-21T19:52:51.341Z,35.90
2023-02-21T19:55:19.056Z,19.00
2023-02-21T19:57:46.785Z,13.50
2023-02-21T20:00:15.594Z,16.50
2023-02-21T20:02:46.542Z,18.50
2023-02-21T20:05:14.579Z,12.50
2023-02-21T20:07:42.514Z,21.10
2023-02-21T20:10:11.435Z,27.80
2023-02-21T20:12:40.684Z,19.40
2023-02-21T20:15:10.712Z,19.20
2023-02-21T20:17:39.303Z,18.00
2023-02-21T20:20:07.698Z,31.40
2023-02-21T20:22:35.666Z,30.70
2023-02-21T20:25:14.076Z,83.60
2023-02-21T20:27:42.510Z,111.90
2023-02-21T20:30:11.110Z,85.90
2023-02-21T20:32:40.145Z,60.40
2023-02-21T20:35:10.166Z,95.40
2023-02-21T20:37:38.037Z,55.10
2023-02-21T20:40:08.121Z,61.40
2023-02-21T20:42:35.994Z,30.70
2023-02-21T20:45:03.798Z,30.30
2023-02-21T20:47:31.541Z,17.90
2023-02-21T20:49:59.400Z,16.70
2023-02-21T20:52:27.500Z,13.00
2023-02-21T20:54:55.259Z,21.70
2023-02-21T20:57:23.117Z,11.30
2023-02-21T20:59:52.086Z,19.50
2023-02-21T21:02:19.758Z,19.50
2023-02-21T21:04:48.219Z,18.60
2023-02-21T21:07:19.975Z,15.80
2023-02-21T21:09:48.940Z,21.00
2023-02-21T21:12:17.965Z,28.50
2023-02-21T21:14:48.668Z,23.10
2023-02-21T21:17:17.960Z,17.50
2023-02-21T21:19:47.851Z,13.90
2023-02-21T21:22:18.680Z,19.40
2023-02-21T21:24:46.745Z,23.90
2023-02-21T21:27:15.425Z,16.20
2023-02-21T21:29:46.012Z,21.50
2023-02-21T21:32:15.197Z,21.90
2023-02-21T21:34:50.421Z,18.70
2023-02-21T21:37:19.886Z,29.80
2023-02-21T21:39:54.729Z,21.40
2023-02-21T21:42:27.252Z,22.50
2023-02-21T21:44:56.262Z,14.40
2023-02-21T21:47:37.200Z,19.10
2023-02-21T21:50:05.077Z,23.90
2023-02-21T21:52:32.855Z,27.30
2023-02-21T21:55:00.575Z,20.30
2023-02-21T21:57:29.366Z,18.90
2023-02-21T21:59:57.296Z,21.40
2023-02-21T22:02:25.097Z,24.80
2023-02-21T22:04:53.473Z,23.10
2023-02-21T22:07:23.042Z,21.00
2023-02-21T22:09:50.692Z,23.00
2023-02-21T22:12:18.866Z,17.70
2023-02-21T22:14:46.627Z,19.20
2023-02-21T22:17:14.414Z,26.50
2023-02-21T22:19:43.022Z,26.50
2023-02-21T22:22:10.754Z,23.70
2023-02-21T22:24:40.634Z,20.70
2023-02-21T22:27:08.494Z,16.30
2023-02-21T22:29:36.142Z,21.60
2023-02-21T22:32:04.103Z,22.90
2023-02-21T22:34:31.841Z,19.50
2023-02-21T22:36:59.564Z,20.50
2023-02-21T22:39:27.353Z,23.00
2023-02-21T22:41:55.139Z,14.70
2023-02-21T22:44:25.221Z,16.60
2023-02-21T22:46:58.608Z,25.30
2023-02-21T22:49:27.273Z,37.10
2023-02-21T22:51:57.150Z,49.00
2023-02-21T22:54:25.337Z,35.00
2023-02-21T22:56:54.798Z,24.10
2023-02-21T22:59:26.332Z,21.00
2023-02-21T23:01:54.399Z,18.00
2023-02-21T23:04:25.968Z,17.20
2023-02-21T23:06:55.352Z,19.00
2023-02-21T23:09:24.756Z,12.40
2023-02-21T23:11:53.924Z,27.70
2023-02-21T23:14:22.118Z,16.90
2023-02-21T23:16:50.653Z,14.60
2023-02-21T23:19:18.620Z,17.60
2023-02-21T23:21:47.201Z,26.00
2023-02-21T23:24:15.870Z,21.80
2023-02-21T23:26:50.957Z,18.20
2023-02-21T23:29:20.099Z,16.30
2023-02-21T23:31:48.387Z,12.20
2023-02-21T23:34:17.103Z,14.80
2023-02-21T23:36:49.225Z,17.40
2023-02-21T23:39:16.985Z,19.10
2023-02-21T23:41:49.158Z,12.70
2023-02-21T23:44:17.311Z,15.80
2023-02-21T23:46:45.054Z,10.70
2023-02-21T23:49:15.818Z,12.70
2023-02-21T23:51:44.077Z,14.20
2023-02-21T23:54:13.714Z,9.50
2023-02-21T23:56:41.478Z,6.70
2023-02-21T23:59:09.276Z,10.70
